sensor_id;sensor_type;location;lat;lon;timestamp;P1;durP1;ratioP1;P2;durP2;ratioP2
70997;SDS011;58663;52.040;4.634;2023-07-29T00:00:34;2.95;;;1.85;;
70997;SDS011;58663;52.040;4.634;2023-07-29T00:02:59;6.95;;;1.75;;
70997;SDS011;58663;52.040;4.634;2023-07-29T00:05:25;6.55;;;1.90;;
70997;SDS011;58663;52.040;4.634;2023-07-29T00:07:50;6.00;;;1.90;;
70997;SDS011;58663;52.040;4.634;2023-07-29T00:10:15;6.50;;;2.22;;
70997;SDS011;58663;52.040;4.634;2023-07-29T00:12:41;5.50;;;1.58;;
70997;SDS011;58663;52.040;4.634;2023-07-29T00:15:07;4.97;;;1.63;;
70997;SDS011;58663;52.040;4.634;2023-07-29T00:17:32;5.13;;;1.58;;
70997;SDS011;58663;52.040;4.634;2023-07-29T00:19:58;3.38;;;1.77;;
70997;SDS011;58663;52.040;4.634;2023-07-29T00:22:23;4.90;;;1.83;;
70997;SDS011;58663;52.040;4.634;2023-07-29T00:24:52;4.30;;;1.70;;
70997;SDS011;58663;52.040;4.634;2023-07-29T00:27:22;5.03;;;1.60;;
70997;SDS011;58663;52.040;4.634;2023-07-29T00:29:47;8.48;;;2.03;;
70997;SDS011;58663;52.040;4.634;2023-07-29T00:32:13;7.72;;;1.85;;
70997;SDS011;58663;52.040;4.634;2023-07-29T00:34:38;4.13;;;1.95;;
70997;SDS011;58663;52.040;4.634;2023-07-29T00:37:03;8.07;;;2.40;;
70997;SDS011;58663;52.040;4.634;2023-07-29T00:39:30;2.78;;;1.52;;
70997;SDS011;58663;52.040;4.634;2023-07-29T00:41:56;4.72;;;1.95;;
70997;SDS011;58663;52.040;4.634;2023-07-29T00:44:21;7.38;;;2.95;;
70997;SDS011;58663;52.040;4.634;2023-07-29T00:46:47;3.60;;;2.10;;
70997;SDS011;58663;52.040;4.634;2023-07-29T00:49:13;4.05;;;1.77;;
70997;SDS011;58663;52.040;4.634;2023-07-29T00:51:38;6.10;;;2.10;;
70997;SDS011;58663;52.040;4.634;2023-07-29T00:54:03;6.60;;;2.10;;
70997;SDS011;58663;52.040;4.634;2023-07-29T00:56:29;5.72;;;2.00;;
70997;SDS011;58663;52.040;4.634;2023-07-29T00:58:54;5.32;;;2.17;;
70997;SDS011;58663;52.040;4.634;2023-07-29T01:01:24;7.30;;;2.47;;
70997;SDS011;58663;52.040;4.634;2023-07-29T01:03:49;6.45;;;2.38;;
70997;SDS011;58663;52.040;4.634;2023-07-29T01:11:48;10.57;;;2.47;;
70997;SDS011;58663;52.040;4.634;2023-07-29T01:14:39;7.35;;;2.75;;
70997;SDS011;58663;52.040;4.634;2023-07-29T01:17:09;5.53;;;3.00;;
70997;SDS011;58663;52.040;4.634;2023-07-29T01:19:55;7.78;;;2.90;;
70997;SDS011;58663;52.040;4.634;2023-07-29T01:22:30;5.00;;;2.63;;
70997;SDS011;58663;52.040;4.634;2023-07-29T01:24:57;11.25;;;3.17;;
70997;SDS011;58663;52.040;4.634;2023-07-29T01:27:23;6.32;;;2.63;;
70997;SDS011;58663;52.040;4.634;2023-07-29T01:29:49;6.35;;;2.90;;
70997;SDS011;58663;52.040;4.634;2023-07-29T01:32:22;5.15;;;2.88;;
70997;SDS011;58663;52.040;4.634;2023-07-29T01:34:58;8.65;;;2.80;;
70997;SDS011;58663;52.040;4.634;2023-07-29T01:37:29;4.75;;;2.22;;
70997;SDS011;58663;52.040;4.634;2023-07-29T01:39:56;8.20;;;2.47;;
70997;SDS011;58663;52.040;4.634;2023-07-29T01:42:23;4.15;;;2.38;;
70997;SDS011;58663;52.040;4.634;2023-07-29T01:44:49;8.77;;;3.38;;
70997;SDS011;58663;52.040;4.634;2023-07-29T01:47:15;6.78;;;2.30;;
70997;SDS011;58663;52.040;4.634;2023-07-29T01:49:41;6.38;;;2.47;;
70997;SDS011;58663;52.040;4.634;2023-07-29T01:52:06;3.75;;;2.30;;
70997;SDS011;58663;52.040;4.634;2023-07-29T01:54:32;2.53;;;1.92;;
70997;SDS011;58663;52.040;4.634;2023-07-29T01:56:57;10.70;;;2.00;;
70997;SDS011;58663;52.040;4.634;2023-07-29T01:59:22;5.57;;;2.25;;
70997;SDS011;58663;52.040;4.634;2023-07-29T02:01:48;6.22;;;2.88;;
70997;SDS011;58663;52.040;4.634;2023-07-29T02:04:13;6.57;;;2.53;;
70997;SDS011;58663;52.040;4.634;2023-07-29T02:06:39;3.67;;;2.15;;
70997;SDS011;58663;52.040;4.634;2023-07-29T02:09:04;4.38;;;1.80;;
70997;SDS011;58663;52.040;4.634;2023-07-29T02:11:30;5.50;;;1.80;;
70997;SDS011;58663;52.040;4.634;2023-07-29T02:13:55;5.75;;;2.20;;
70997;SDS011;58663;52.040;4.634;2023-07-29T02:16:21;4.32;;;2.50;;
70997;SDS011;58663;52.040;4.634;2023-07-29T02:18:47;8.15;;;2.58;;
70997;SDS011;58663;52.040;4.634;2023-07-29T02:21:14;5.40;;;2.75;;
70997;SDS011;58663;52.040;4.634;2023-07-29T02:23:40;4.90;;;2.58;;
70997;SDS011;58663;52.040;4.634;2023-07-29T02:26:05;4.57;;;2.50;;
70997;SDS011;58663;52.040;4.634;2023-07-29T02:28:31;8.52;;;2.60;;
70997;SDS011;58663;52.040;4.634;2023-07-29T02:31:09;4.50;;;2.60;;
70997;SDS011;58663;52.040;4.634;2023-07-29T02:33:41;6.78;;;2.38;;
70997;SDS011;58663;52.040;4.634;2023-07-29T02:36:07;5.85;;;2.78;;
70997;SDS011;58663;52.040;4.634;2023-07-29T02:38:33;3.22;;;2.42;;
70997;SDS011;58663;52.040;4.634;2023-07-29T02:40:58;7.75;;;2.40;;
70997;SDS011;58663;52.040;4.634;2023-07-29T02:43:23;5.18;;;2.20;;
70997;SDS011;58663;52.040;4.634;2023-07-29T02:45:49;9.32;;;2.38;;
70997;SDS011;58663;52.040;4.634;2023-07-29T02:48:14;8.45;;;2.50;;
70997;SDS011;58663;52.040;4.634;2023-07-29T02:50:40;6.32;;;2.67;;
70997;SDS011;58663;52.040;4.634;2023-07-29T02:53:05;6.80;;;2.20;;
70997;SDS011;58663;52.040;4.634;2023-07-29T02:55:31;8.35;;;2.30;;
70997;SDS011;58663;52.040;4.634;2023-07-29T02:57:56;3.85;;;2.22;;
70997;SDS011;58663;52.040;4.634;2023-07-29T03:00:21;5.45;;;2.47;;
70997;SDS011;58663;52.040;4.634;2023-07-29T03:02:47;5.88;;;2.30;;
70997;SDS011;58663;52.040;4.634;2023-07-29T03:05:12;7.10;;;2.58;;
70997;SDS011;58663;52.040;4.634;2023-07-29T03:07:38;4.22;;;2.17;;
70997;SDS011;58663;52.040;4.634;2023-07-29T03:10:03;5.30;;;2.60;;
70997;SDS011;58663;52.040;4.634;2023-07-29T03:12:29;3.13;;;2.13;;
70997;SDS011;58663;52.040;4.634;2023-07-29T03:14:54;3.92;;;2.22;;
70997;SDS011;58663;52.040;4.634;2023-07-29T03:17:21;3.08;;;2.10;;
70997;SDS011;58663;52.040;4.634;2023-07-29T03:19:46;4.80;;;2.20;;
70997;SDS011;58663;52.040;4.634;2023-07-29T03:22:11;4.60;;;2.30;;
70997;SDS011;58663;52.040;4.634;2023-07-29T03:24:37;5.20;;;2.38;;
70997;SDS011;58663;52.040;4.634;2023-07-29T03:27:02;5.72;;;2.45;;
70997;SDS011;58663;52.040;4.634;2023-07-29T03:29:28;5.78;;;2.45;;
70997;SDS011;58663;52.040;4.634;2023-07-29T03:31:53;3.55;;;2.20;;
70997;SDS011;58663;52.040;4.634;2023-07-29T03:34:18;7.85;;;2.30;;
70997;SDS011;58663;52.040;4.634;2023-07-29T03:36:44;4.90;;;2.40;;
70997;SDS011;58663;52.040;4.634;2023-07-29T03:39:11;6.25;;;2.47;;
70997;SDS011;58663;52.040;4.634;2023-07-29T03:41:37;5.40;;;2.42;;
70997;SDS011;58663;52.040;4.634;2023-07-29T03:44:02;4.57;;;2.45;;
70997;SDS011;58663;52.040;4.634;2023-07-29T03:46:27;6.80;;;2.60;;
70997;SDS011;58663;52.040;4.634;2023-07-29T03:48:53;4.07;;;2.40;;
70997;SDS011;58663;52.040;4.634;2023-07-29T03:51:18;6.75;;;2.63;;
70997;SDS011;58663;52.040;4.634;2023-07-29T03:53:44;4.47;;;2.80;;
70997;SDS011;58663;52.040;4.634;2023-07-29T03:56:09;4.95;;;2.60;;
70997;SDS011;58663;52.040;4.634;2023-07-29T03:58:34;3.70;;;2.53;;
70997;SDS011;58663;52.040;4.634;2023-07-29T04:01:00;5.65;;;3.20;;
70997;SDS011;58663;52.040;4.634;2023-07-29T04:03:25;6.80;;;2.63;;
70997;SDS011;58663;52.040;4.634;2023-07-29T04:05:51;6.18;;;2.55;;
70997;SDS011;58663;52.040;4.634;2023-07-29T04:08:16;7.35;;;2.67;;
70997;SDS011;58663;52.040;4.634;2023-07-29T04:10:42;6.45;;;2.58;;
70997;SDS011;58663;52.040;4.634;2023-07-29T04:13:07;5.90;;;2.55;;
70997;SDS011;58663;52.040;4.634;2023-07-29T04:15:33;10.13;;;3.88;;
70997;SDS011;58663;52.040;4.634;2023-07-29T04:17:58;8.00;;;3.20;;
70997;SDS011;58663;52.040;4.634;2023-07-29T04:20:23;5.75;;;3.13;;
70997;SDS011;58663;52.040;4.634;2023-07-29T04:22:49;3.63;;;2.70;;
70997;SDS011;58663;52.040;4.634;2023-07-29T04:25:14;7.85;;;3.30;;
70997;SDS011;58663;52.040;4.634;2023-07-29T04:27:39;9.88;;;3.50;;
70997;SDS011;58663;52.040;4.634;2023-07-29T04:30:05;8.05;;;3.47;;
70997;SDS011;58663;52.040;4.634;2023-07-29T04:32:31;11.95;;;3.50;;
70997;SDS011;58663;52.040;4.634;2023-07-29T04:34:56;4.30;;;3.10;;
70997;SDS011;58663;52.040;4.634;2023-07-29T04:37:21;5.75;;;3.58;;
70997;SDS011;58663;52.040;4.634;2023-07-29T04:39:47;6.47;;;3.78;;
70997;SDS011;58663;52.040;4.634;2023-07-29T04:42:12;12.98;;;3.97;;
70997;SDS011;58663;52.040;4.634;2023-07-29T04:44:37;6.10;;;3.22;;
70997;SDS011;58663;52.040;4.634;2023-07-29T04:47:03;8.77;;;3.67;;
70997;SDS011;58663;52.040;4.634;2023-07-29T04:49:28;9.02;;;4.03;;
70997;SDS011;58663;52.040;4.634;2023-07-29T04:51:54;7.05;;;3.63;;
70997;SDS011;58663;52.040;4.634;2023-07-29T04:54:19;7.18;;;3.58;;
70997;SDS011;58663;52.040;4.634;2023-07-29T04:56:45;7.03;;;3.95;;
70997;SDS011;58663;52.040;4.634;2023-07-29T04:59:11;7.05;;;3.75;;
70997;SDS011;58663;52.040;4.634;2023-07-29T05:01:38;10.50;;;4.35;;
70997;SDS011;58663;52.040;4.634;2023-07-29T05:04:03;12.57;;;3.90;;
70997;SDS011;58663;52.040;4.634;2023-07-29T05:06:29;9.57;;;3.83;;
70997;SDS011;58663;52.040;4.634;2023-07-29T05:08:54;11.25;;;4.47;;
70997;SDS011;58663;52.040;4.634;2023-07-29T05:11:19;12.25;;;4.00;;
70997;SDS011;58663;52.040;4.634;2023-07-29T05:13:45;8.93;;;4.35;;
70997;SDS011;58663;52.040;4.634;2023-07-29T05:16:10;8.18;;;4.25;;
70997;SDS011;58663;52.040;4.634;2023-07-29T05:18:36;8.27;;;3.70;;
70997;SDS011;58663;52.040;4.634;2023-07-29T05:21:01;9.27;;;4.10;;
70997;SDS011;58663;52.040;4.634;2023-07-29T05:23:26;13.32;;;4.32;;
70997;SDS011;58663;52.040;4.634;2023-07-29T05:25:52;8.43;;;3.67;;
70997;SDS011;58663;52.040;4.634;2023-07-29T05:28:17;9.50;;;4.00;;
70997;SDS011;58663;52.040;4.634;2023-07-29T05:30:43;10.82;;;4.05;;
70997;SDS011;58663;52.040;4.634;2023-07-29T05:33:08;7.95;;;3.78;;
70997;SDS011;58663;52.040;4.634;2023-07-29T05:35:34;12.23;;;3.85;;
70997;SDS011;58663;52.040;4.634;2023-07-29T05:37:59;9.60;;;3.97;;
70997;SDS011;58663;52.040;4.634;2023-07-29T05:40:24;11.45;;;4.80;;
70997;SDS011;58663;52.040;4.634;2023-07-29T05:42:50;8.95;;;4.50;;
70997;SDS011;58663;52.040;4.634;2023-07-29T05:45:15;12.82;;;4.53;;
70997;SDS011;58663;52.040;4.634;2023-07-29T05:47:41;7.47;;;4.25;;
70997;SDS011;58663;52.040;4.634;2023-07-29T05:50:06;8.77;;;4.05;;
70997;SDS011;58663;52.040;4.634;2023-07-29T05:52:32;7.65;;;4.50;;
70997;SDS011;58663;52.040;4.634;2023-07-29T05:54:58;9.10;;;4.25;;
70997;SDS011;58663;52.040;4.634;2023-07-29T05:57:23;7.70;;;3.47;;
70997;SDS011;58663;52.040;4.634;2023-07-29T05:59:48;6.30;;;3.40;;
70997;SDS011;58663;52.040;4.634;2023-07-29T06:02:14;7.63;;;3.60;;
70997;SDS011;58663;52.040;4.634;2023-07-29T06:04:39;7.70;;;4.10;;
70997;SDS011;58663;52.040;4.634;2023-07-29T06:07:05;7.45;;;3.65;;
70997;SDS011;58663;52.040;4.634;2023-07-29T06:09:31;10.60;;;3.67;;
70997;SDS011;58663;52.040;4.634;2023-07-29T06:11:56;10.15;;;3.90;;
70997;SDS011;58663;52.040;4.634;2023-07-29T06:14:21;9.50;;;3.78;;
70997;SDS011;58663;52.040;4.634;2023-07-29T06:16:47;7.85;;;3.50;;
70997;SDS011;58663;52.040;4.634;2023-07-29T06:19:12;6.70;;;3.53;;
70997;SDS011;58663;52.040;4.634;2023-07-29T06:21:38;7.93;;;3.00;;
70997;SDS011;58663;52.040;4.634;2023-07-29T06:24:03;8.05;;;3.10;;
70997;SDS011;58663;52.040;4.634;2023-07-29T06:26:29;8.25;;;3.30;;
70997;SDS011;58663;52.040;4.634;2023-07-29T06:28:54;7.57;;;3.22;;
70997;SDS011;58663;52.040;4.634;2023-07-29T06:31:20;5.13;;;3.15;;
70997;SDS011;58663;52.040;4.634;2023-07-29T06:33:45;7.53;;;3.42;;
70997;SDS011;58663;52.040;4.634;2023-07-29T06:36:11;6.50;;;3.75;;
70997;SDS011;58663;52.040;4.634;2023-07-29T06:38:37;6.88;;;3.55;;
70997;SDS011;58663;52.040;4.634;2023-07-29T06:41:03;7.70;;;3.53;;
70997;SDS011;58663;52.040;4.634;2023-07-29T06:43:29;10.90;;;3.60;;
70997;SDS011;58663;52.040;4.634;2023-07-29T06:45:54;10.90;;;3.65;;
70997;SDS011;58663;52.040;4.634;2023-07-29T06:48:20;8.90;;;3.88;;
70997;SDS011;58663;52.040;4.634;2023-07-29T06:50:45;6.10;;;3.00;;
70997;SDS011;58663;52.040;4.634;2023-07-29T06:53:11;11.52;;;4.55;;
70997;SDS011;58663;52.040;4.634;2023-07-29T06:55:36;6.63;;;2.72;;
70997;SDS011;58663;52.040;4.634;2023-07-29T06:58:02;10.10;;;3.15;;
70997;SDS011;58663;52.040;4.634;2023-07-29T07:00:27;6.07;;;2.53;;
70997;SDS011;58663;52.040;4.634;2023-07-29T07:02:53;9.98;;;2.60;;
70997;SDS011;58663;52.040;4.634;2023-07-29T07:05:18;9.82;;;2.60;;
70997;SDS011;58663;52.040;4.634;2023-07-29T07:07:43;9.00;;;2.70;;
70997;SDS011;58663;52.040;4.634;2023-07-29T07:10:09;4.43;;;2.38;;
70997;SDS011;58663;52.040;4.634;2023-07-29T07:12:34;4.03;;;2.10;;
70997;SDS011;58663;52.040;4.634;2023-07-29T07:15:00;9.50;;;2.70;;
70997;SDS011;58663;52.040;4.634;2023-07-29T07:17:26;7.50;;;2.67;;
70997;SDS011;58663;52.040;4.634;2023-07-29T07:19:51;3.50;;;2.20;;
70997;SDS011;58663;52.040;4.634;2023-07-29T07:22:16;10.40;;;2.90;;
70997;SDS011;58663;52.040;4.634;2023-07-29T07:24:42;5.65;;;2.35;;
70997;SDS011;58663;52.040;4.634;2023-07-29T07:27:07;6.13;;;2.15;;
70997;SDS011;58663;52.040;4.634;2023-07-29T07:29:33;9.30;;;2.13;;
70997;SDS011;58663;52.040;4.634;2023-07-29T07:31:58;6.05;;;2.20;;
70997;SDS011;58663;52.040;4.634;2023-07-29T07:34:24;7.43;;;2.05;;
70997;SDS011;58663;52.040;4.634;2023-07-29T07:36:49;2.95;;;1.90;;
70997;SDS011;58663;52.040;4.634;2023-07-29T07:39:14;6.53;;;1.92;;
70997;SDS011;58663;52.040;4.634;2023-07-29T07:41:40;5.47;;;1.92;;
70997;SDS011;58663;52.040;4.634;2023-07-29T07:44:06;7.53;;;1.65;;
70997;SDS011;58663;52.040;4.634;2023-07-29T07:46:31;2.97;;;1.45;;
70997;SDS011;58663;52.040;4.634;2023-07-29T07:48:57;3.03;;;1.52;;
70997;SDS011;58663;52.040;4.634;2023-07-29T07:51:22;6.53;;;1.60;;
70997;SDS011;58663;52.040;4.634;2023-07-29T07:53:48;3.35;;;1.58;;
70997;SDS011;58663;52.040;4.634;2023-07-29T07:56:13;8.13;;;1.50;;
70997;SDS011;58663;52.040;4.634;2023-07-29T07:58:38;5.53;;;1.70;;
70997;SDS011;58663;52.040;4.634;2023-07-29T08:01:04;9.23;;;2.03;;
70997;SDS011;58663;52.040;4.634;2023-07-29T08:03:31;4.90;;;2.00;;
70997;SDS011;58663;52.040;4.634;2023-07-29T08:05:56;6.93;;;1.65;;
70997;SDS011;58663;52.040;4.634;2023-07-29T08:08:22;3.60;;;1.55;;
70997;SDS011;58663;52.040;4.634;2023-07-29T08:10:47;4.10;;;1.60;;
70997;SDS011;58663;52.040;4.634;2023-07-29T08:13:13;3.40;;;1.60;;
70997;SDS011;58663;52.040;4.634;2023-07-29T08:15:38;3.50;;;2.38;;
70997;SDS011;58663;52.040;4.634;2023-07-29T08:18:03;2.92;;;1.50;;
70997;SDS011;58663;52.040;4.634;2023-07-29T08:20:29;4.05;;;1.60;;
70997;SDS011;58663;52.040;4.634;2023-07-29T08:22:54;3.83;;;1.55;;
70997;SDS011;58663;52.040;4.634;2023-07-29T08:25:19;2.50;;;1.60;;
70997;SDS011;58663;52.040;4.634;2023-07-29T08:27:45;4.35;;;1.65;;
70997;SDS011;58663;52.040;4.634;2023-07-29T08:30:10;1.77;;;1.30;;
70997;SDS011;58663;52.040;4.634;2023-07-29T08:32:35;5.03;;;1.63;;
70997;SDS011;58663;52.040;4.634;2023-07-29T08:35:01;5.60;;;1.75;;
70997;SDS011;58663;52.040;4.634;2023-07-29T08:37:26;3.22;;;1.40;;
70997;SDS011;58663;52.040;4.634;2023-07-29T08:39:52;4.50;;;1.83;;
70997;SDS011;58663;52.040;4.634;2023-07-29T08:42:19;7.57;;;1.80;;
70997;SDS011;58663;52.040;4.634;2023-07-29T08:44:44;3.28;;;1.65;;
70997;SDS011;58663;52.040;4.634;2023-07-29T08:47:10;3.25;;;1.52;;
70997;SDS011;58663;52.040;4.634;2023-07-29T08:49:37;6.28;;;1.92;;
70997;SDS011;58663;52.040;4.634;2023-07-29T08:52:03;4.43;;;1.73;;
70997;SDS011;58663;52.040;4.634;2023-07-29T08:54:29;5.15;;;1.58;;
70997;SDS011;58663;52.040;4.634;2023-07-29T08:56:55;6.50;;;1.70;;
70997;SDS011;58663;52.040;4.634;2023-07-29T08:59:20;5.20;;;2.00;;
70997;SDS011;58663;52.040;4.634;2023-07-29T09:01:46;4.65;;;1.88;;
70997;SDS011;58663;52.040;4.634;2023-07-29T09:04:12;3.58;;;1.98;;
70997;SDS011;58663;52.040;4.634;2023-07-29T09:06:37;7.03;;;1.85;;
70997;SDS011;58663;52.040;4.634;2023-07-29T09:09:04;5.57;;;2.20;;
70997;SDS011;58663;52.040;4.634;2023-07-29T09:11:30;7.78;;;2.30;;
70997;SDS011;58663;52.040;4.634;2023-07-29T09:13:56;5.60;;;2.92;;
70997;SDS011;58663;52.040;4.634;2023-07-29T09:16:22;6.60;;;2.80;;
70997;SDS011;58663;52.040;4.634;2023-07-29T09:18:50;5.45;;;2.53;;
70997;SDS011;58663;52.040;4.634;2023-07-29T09:21:23;4.85;;;2.30;;
70997;SDS011;58663;52.040;4.634;2023-07-29T09:23:53;10.43;;;3.40;;
70997;SDS011;58663;52.040;4.634;2023-07-29T09:26:22;5.15;;;2.80;;
70997;SDS011;58663;52.040;4.634;2023-07-29T09:28:51;8.68;;;3.83;;
70997;SDS011;58663;52.040;4.634;2023-07-29T09:31:21;5.90;;;4.00;;
70997;SDS011;58663;52.040;4.634;2023-07-29T09:33:47;9.02;;;4.03;;
70997;SDS011;58663;52.040;4.634;2023-07-29T09:36:13;5.90;;;3.50;;
70997;SDS011;58663;52.040;4.634;2023-07-29T09:38:38;3.78;;;2.95;;
70997;SDS011;58663;52.040;4.634;2023-07-29T09:41:04;6.38;;;3.10;;
70997;SDS011;58663;52.040;4.634;2023-07-29T09:43:33;4.70;;;2.95;;
70997;SDS011;58663;52.040;4.634;2023-07-29T09:46:03;3.58;;;2.97;;
70997;SDS011;58663;52.040;4.634;2023-07-29T09:48:33;7.28;;;2.90;;
70997;SDS011;58663;52.040;4.634;2023-07-29T09:50:58;9.60;;;3.55;;
70997;SDS011;58663;52.040;4.634;2023-07-29T09:53:24;4.32;;;2.80;;
70997;SDS011;58663;52.040;4.634;2023-07-29T09:55:49;4.13;;;2.63;;
70997;SDS011;58663;52.040;4.634;2023-07-29T09:58:18;4.20;;;2.10;;
70997;SDS011;58663;52.040;4.634;2023-07-29T10:00:44;5.45;;;2.20;;
70997;SDS011;58663;52.040;4.634;2023-07-29T10:03:10;2.30;;;2.08;;
70997;SDS011;58663;52.040;4.634;2023-07-29T10:05:36;4.05;;;2.10;;
70997;SDS011;58663;52.040;4.634;2023-07-29T10:08:03;3.20;;;2.38;;
70997;SDS011;58663;52.040;4.634;2023-07-29T10:10:29;4.60;;;2.38;;
70997;SDS011;58663;52.040;4.634;2023-07-29T10:12:55;4.38;;;1.95;;
70997;SDS011;58663;52.040;4.634;2023-07-29T10:15:21;3.22;;;1.95;;
70997;SDS011;58663;52.040;4.634;2023-07-29T10:17:47;2.50;;;1.70;;
70997;SDS011;58663;52.040;4.634;2023-07-29T10:20:13;3.25;;;1.85;;
70997;SDS011;58663;52.040;4.634;2023-07-29T10:22:42;4.07;;;1.80;;
70997;SDS011;58663;52.040;4.634;2023-07-29T10:25:09;3.80;;;1.67;;
70997;SDS011;58663;52.040;4.634;2023-07-29T10:27:42;7.38;;;2.15;;
70997;SDS011;58663;52.040;4.634;2023-07-29T10:30:12;5.43;;;1.92;;
70997;SDS011;58663;52.040;4.634;2023-07-29T10:32:38;8.13;;;2.30;;
70997;SDS011;58663;52.040;4.634;2023-07-29T10:35:04;5.80;;;2.28;;
70997;SDS011;58663;52.040;4.634;2023-07-29T10:37:29;4.22;;;1.90;;
70997;SDS011;58663;52.040;4.634;2023-07-29T10:39:55;2.30;;;1.50;;
70997;SDS011;58663;52.040;4.634;2023-07-29T10:42:21;2.72;;;1.60;;
70997;SDS011;58663;52.040;4.634;2023-07-29T10:44:50;3.95;;;1.20;;
70997;SDS011;58663;52.040;4.634;2023-07-29T10:47:26;1.75;;;1.23;;
70997;SDS011;58663;52.040;4.634;2023-07-29T10:49:56;2.97;;;1.40;;
70997;SDS011;58663;52.040;4.634;2023-07-29T10:54:55;1.95;;;1.00;;
70997;SDS011;58663;52.040;4.634;2023-07-29T10:57:33;3.65;;;1.10;;
70997;SDS011;58663;52.040;4.634;2023-07-29T11:00:00;1.38;;;0.90;;
70997;SDS011;58663;52.040;4.634;2023-07-29T11:02:31;2.05;;;1.10;;
70997;SDS011;58663;52.040;4.634;2023-07-29T11:04:58;1.95;;;1.30;;
70997;SDS011;58663;52.040;4.634;2023-07-29T11:07:25;4.80;;;1.10;;
70997;SDS011;58663;52.040;4.634;2023-07-29T11:09:55;1.92;;;1.30;;
70997;SDS011;58663;52.040;4.634;2023-07-29T11:15:13;3.92;;;1.20;;
70997;SDS011;58663;52.040;4.634;2023-07-29T11:17:40;2.50;;;1.20;;
70997;SDS011;58663;52.040;4.634;2023-07-29T11:20:16;2.95;;;1.40;;
70997;SDS011;58663;52.040;4.634;2023-07-29T11:22:42;1.85;;;1.30;;
70997;SDS011;58663;52.040;4.634;2023-07-29T11:25:09;2.53;;;1.77;;
70997;SDS011;58663;52.040;4.634;2023-07-29T11:27:37;2.90;;;1.63;;
70997;SDS011;58663;52.040;4.634;2023-07-29T11:30:03;5.68;;;1.70;;
70997;SDS011;58663;52.040;4.634;2023-07-29T11:32:30;2.33;;;2.00;;
70997;SDS011;58663;52.040;4.634;2023-07-29T11:34:56;2.08;;;1.70;;
70997;SDS011;58663;52.040;4.634;2023-07-29T11:37:22;2.00;;;1.58;;
70997;SDS011;58663;52.040;4.634;2023-07-29T11:39:47;3.65;;;1.98;;
70997;SDS011;58663;52.040;4.634;2023-07-29T11:42:13;2.88;;;2.00;;
70997;SDS011;58663;52.040;4.634;2023-07-29T11:44:39;3.83;;;2.47;;
70997;SDS011;58663;52.040;4.634;2023-07-29T11:47:08;4.07;;;2.20;;
70997;SDS011;58663;52.040;4.634;2023-07-29T11:49:38;3.40;;;2.10;;
70997;SDS011;58663;52.040;4.634;2023-07-29T11:52:08;3.08;;;2.10;;
70997;SDS011;58663;52.040;4.634;2023-07-29T11:54:37;2.60;;;2.40;;
70997;SDS011;58663;52.040;4.634;2023-07-29T11:57:04;3.45;;;2.50;;
70997;SDS011;58663;52.040;4.634;2023-07-29T11:59:33;3.92;;;2.42;;
70997;SDS011;58663;52.040;4.634;2023-07-29T12:02:05;5.30;;;2.08;;
70997;SDS011;58663;52.040;4.634;2023-07-29T12:04:33;3.28;;;1.90;;
70997;SDS011;58663;52.040;4.634;2023-07-29T12:06:59;2.78;;;1.80;;
70997;SDS011;58663;52.040;4.634;2023-07-29T12:09:25;5.35;;;2.03;;
70997;SDS011;58663;52.040;4.634;2023-07-29T12:11:52;2.92;;;2.20;;
70997;SDS011;58663;52.040;4.634;2023-07-29T12:14:17;3.13;;;2.15;;
70997;SDS011;58663;52.040;4.634;2023-07-29T12:16:43;3.28;;;1.77;;
70997;SDS011;58663;52.040;4.634;2023-07-29T12:19:11;5.50;;;2.20;;
70997;SDS011;58663;52.040;4.634;2023-07-29T12:21:38;4.67;;;2.23;;
70997;SDS011;58663;52.040;4.634;2023-07-29T12:24:03;2.95;;;1.92;;
70997;SDS011;58663;52.040;4.634;2023-07-29T12:26:29;5.00;;;1.80;;
70997;SDS011;58663;52.040;4.634;2023-07-29T12:28:55;2.47;;;1.60;;
70997;SDS011;58663;52.040;4.634;2023-07-29T12:31:21;1.98;;;1.40;;
70997;SDS011;58663;52.040;4.634;2023-07-29T12:33:47;4.65;;;1.85;;
70997;SDS011;58663;52.040;4.634;2023-07-29T12:36:13;4.53;;;2.15;;
70997;SDS011;58663;52.040;4.634;2023-07-29T12:38:38;3.20;;;1.33;;
70997;SDS011;58663;52.040;4.634;2023-07-29T12:41:03;3.22;;;1.70;;
70997;SDS011;58663;52.040;4.634;2023-07-29T12:43:29;1.95;;;1.63;;
70997;SDS011;58663;52.040;4.634;2023-07-29T12:45:54;2.20;;;1.52;;
70997;SDS011;58663;52.040;4.634;2023-07-29T12:48:19;2.33;;;1.63;;
70997;SDS011;58663;52.040;4.634;2023-07-29T12:50:45;2.92;;;1.58;;
70997;SDS011;58663;52.040;4.634;2023-07-29T12:53:11;3.78;;;1.60;;
70997;SDS011;58663;52.040;4.634;2023-07-29T12:55:36;3.28;;;2.00;;
70997;SDS011;58663;52.040;4.634;2023-07-29T12:58:02;1.70;;;1.20;;
70997;SDS011;58663;52.040;4.634;2023-07-29T13:00:28;4.55;;;1.40;;
70997;SDS011;58663;52.040;4.634;2023-07-29T13:02:54;1.95;;;1.35;;
70997;SDS011;58663;52.040;4.634;2023-07-29T13:05:19;2.65;;;1.13;;
70997;SDS011;58663;52.040;4.634;2023-07-29T13:07:45;2.97;;;1.27;;
70997;SDS011;58663;52.040;4.634;2023-07-29T13:10:10;2.67;;;1.42;;
70997;SDS011;58663;52.040;4.634;2023-07-29T13:12:36;4.32;;;2.00;;
70997;SDS011;58663;52.040;4.634;2023-07-29T13:15:01;3.13;;;1.60;;
70997;SDS011;58663;52.040;4.634;2023-07-29T13:17:27;2.78;;;1.63;;
70997;SDS011;58663;52.040;4.634;2023-07-29T13:19:52;2.72;;;1.38;;
70997;SDS011;58663;52.040;4.634;2023-07-29T13:22:19;2.88;;;1.33;;
70997;SDS011;58663;52.040;4.634;2023-07-29T13:24:45;5.60;;;1.35;;
70997;SDS011;58663;52.040;4.634;2023-07-29T13:27:10;3.60;;;1.30;;
70997;SDS011;58663;52.040;4.634;2023-07-29T13:29:36;2.60;;;1.50;;
70997;SDS011;58663;52.040;4.634;2023-07-29T13:32:01;6.22;;;1.42;;
70997;SDS011;58663;52.040;4.634;2023-07-29T13:34:26;3.45;;;1.40;;
70997;SDS011;58663;52.040;4.634;2023-07-29T13:36:52;3.92;;;1.35;;
70997;SDS011;58663;52.040;4.634;2023-07-29T13:39:17;2.78;;;1.38;;
70997;SDS011;58663;52.040;4.634;2023-07-29T13:41:43;5.35;;;1.40;;
70997;SDS011;58663;52.040;4.634;2023-07-29T13:44:08;2.25;;;1.25;;
70997;SDS011;58663;52.040;4.634;2023-07-29T13:46:33;2.05;;;1.17;;
70997;SDS011;58663;52.040;4.634;2023-07-29T13:48:59;3.03;;;1.20;;
70997;SDS011;58663;52.040;4.634;2023-07-29T13:51:24;2.60;;;1.35;;
70997;SDS011;58663;52.040;4.634;2023-07-29T13:53:49;2.40;;;1.20;;
70997;SDS011;58663;52.040;4.634;2023-07-29T13:56:15;2.15;;;1.15;;
70997;SDS011;58663;52.040;4.634;2023-07-29T13:58:40;2.28;;;1.33;;
70997;SDS011;58663;52.040;4.634;2023-07-29T14:01:06;3.63;;;1.20;;
70997;SDS011;58663;52.040;4.634;2023-07-29T14:03:31;2.10;;;1.20;;
70997;SDS011;58663;52.040;4.634;2023-07-29T14:05:56;2.83;;;1.27;;
70997;SDS011;58663;52.040;4.634;2023-07-29T14:08:22;6.00;;;1.42;;
70997;SDS011;58663;52.040;4.634;2023-07-29T14:10:48;3.42;;;1.30;;
70997;SDS011;58663;52.040;4.634;2023-07-29T14:13:16;4.22;;;1.67;;
70997;SDS011;58663;52.040;4.634;2023-07-29T14:15:42;3.38;;;1.20;;
70997;SDS011;58663;52.040;4.634;2023-07-29T14:18:07;4.55;;;1.17;;
70997;SDS011;58663;52.040;4.634;2023-07-29T14:20:33;4.93;;;1.38;;
70997;SDS011;58663;52.040;4.634;2023-07-29T14:22:58;3.10;;;1.50;;
70997;SDS011;58663;52.040;4.634;2023-07-29T14:25:23;1.35;;;1.10;;
70997;SDS011;58663;52.040;4.634;2023-07-29T14:27:49;1.85;;;1.20;;
70997;SDS011;58663;52.040;4.634;2023-07-29T14:30:15;2.28;;;1.63;;
70997;SDS011;58663;52.040;4.634;2023-07-29T14:32:40;3.28;;;1.67;;
70997;SDS011;58663;52.040;4.634;2023-07-29T14:35:05;2.78;;;1.45;;
70997;SDS011;58663;52.040;4.634;2023-07-29T14:37:32;3.80;;;1.50;;
70997;SDS011;58663;52.040;4.634;2023-07-29T14:39:58;3.65;;;1.40;;
70997;SDS011;58663;52.040;4.634;2023-07-29T14:42:23;4.28;;;1.48;;
70997;SDS011;58663;52.040;4.634;2023-07-29T14:44:49;3.17;;;1.42;;
70997;SDS011;58663;52.040;4.634;2023-07-29T14:47:14;2.45;;;1.20;;
70997;SDS011;58663;52.040;4.634;2023-07-29T14:49:39;3.22;;;1.58;;
70997;SDS011;58663;52.040;4.634;2023-07-29T14:52:05;4.70;;;1.50;;